Time;durP1;ratioP1;P1;durP2;ratioP2;P2;SDS_P1;SDS_P2;PMS_P1;PMS_P2;Temp;Humidity;BMP_temperature;BMP_pressure;BME280_temperature;BME280_humidity;BME280_pressure;Samples;Min_cycle;Max_cycle;Signal;HPM_P1;HPM_P2
2023/10/18 00:00:32;;;;;;;25.65;18.55;;;4.80;99.90;;;;;;5057608;28;20037;-48
2023/10/18 00:03:01;;;;;;;26.05;18.73;;;4.80;99.90;;;;;;5057426;28;20186;-48
2023/10/18 00:05:28;;;;;;;26.02;18.80;;;4.80;99.90;;;;;;5054436;28;20198;-48
2023/10/18 00:07:56;;;;;;;27.17;19.08;;;4.70;99.90;;;;;;5057379;28;20044;-48
2023/10/18 00:10:22;;;;;;;26.80;19.70;;;4.70;99.90;;;;;;5058401;28;20040;-47
2023/10/18 00:12:48;;;;;;;30.63;19.65;;;4.70;99.90;;;;;;5053357;28;20045;-48
2023/10/18 00:15:14;;;;;;;25.70;18.23;;;4.70;99.90;;;;;;5054842;28;20261;-49
2023/10/18 00:17:40;;;;;;;28.70;19.58;;;4.70;99.90;;;;;;5055859;28;20119;-49
2023/10/18 00:20:16;;;;;;;31.50;20.38;;;4.70;99.90;;;;;;5056543;28;20041;-48
2023/10/18 00:22:44;;;;;;;29.95;19.95;;;4.70;99.90;;;;;;5054042;28;20071;-48
2023/10/18 00:25:11;;;;;;;28.48;20.52;;;4.70;99.90;;;;;;5055536;28;20036;-48
2023/10/18 00:27:38;;;;;;;33.85;22.23;;;4.70;99.90;;;;;;5059633;28;20040;-50
2023/10/18 00:30:11;;;;;;;34.33;23.63;;;4.70;99.90;;;;;;5058504;28;20043;-51
2023/10/18 00:32:42;;;;;;;32.53;21.73;;;4.70;99.90;;;;;;5062832;28;20431;-49
2023/10/18 00:35:22;;;;;;;31.70;22.48;;;4.60;99.90;;;;;;5059751;28;20051;-52
2023/10/18 00:37:49;;;;;;;33.00;22.83;;;4.60;99.90;;;;;;5057391;28;20074;-49
2023/10/18 00:43:05;;;;;;;33.92;21.42;;;4.60;99.90;;;;;;5056920;28;20044;-51
2023/10/18 00:45:31;;;;;;;28.70;21.33;;;4.60;99.90;;;;;;5051841;28;20090;-49
2023/10/18 00:48:05;;;;;;;34.47;22.65;;;4.50;99.90;;;;;;5052961;28;20128;-48
2023/10/18 00:50:33;;;;;;;33.80;23.33;;;4.60;99.90;;;;;;5056827;28;20036;-49
2023/10/18 00:53:00;;;;;;;29.88;22.30;;;4.50;99.90;;;;;;5059167;28;20178;-48
2023/10/18 00:55:26;;;;;;;36.03;23.33;;;4.60;99.90;;;;;;5056180;28;20516;-49
2023/10/18 00:57:52;;;;;;;35.00;24.30;;;4.40;99.90;;;;;;5049542;28;20198;-51
2023/10/18 01:00:24;;;;;;;35.30;23.27;;;4.50;99.90;;;;;;5054320;28;20470;-52
2023/10/18 01:02:53;;;;;;;37.50;24.60;;;4.60;99.90;;;;;;5058466;28;20144;-50
2023/10/18 01:05:19;;;;;;;38.55;24.65;;;4.60;99.90;;;;;;5050490;28;20053;-48
2023/10/18 01:07:47;;;;;;;37.38;23.05;;;4.50;99.90;;;;;;5057928;28;20094;-52
2023/10/18 01:10:13;;;;;;;40.90;26.75;;;4.50;99.90;;;;;;5049872;28;20467;-49
2023/10/18 01:12:38;;;;;;;42.00;26.30;;;4.50;99.90;;;;;;5062975;28;20187;-52
2023/10/18 01:15:12;;;;;;;37.20;24.45;;;4.50;99.90;;;;;;5056317;28;20045;-52
2023/10/18 01:17:42;;;;;;;38.35;25.90;;;4.50;99.90;;;;;;5057988;28;20037;-49
2023/10/18 01:20:33;;;;;;;41.85;26.10;;;4.40;99.90;;;;;;5053282;28;21087;-49
2023/10/18 01:22:55;;;;;;;42.35;26.70;;;4.60;99.90;;;;;;5054284;28;20173;-47
2023/10/18 01:25:20;;;;;;;42.35;27.30;;;4.50;99.90;;;;;;5050055;28;20048;-48
2023/10/18 01:27:46;;;;;;;46.70;25.15;;;4.40;99.90;;;;;;5059407;28;20059;-48
2023/10/18 01:30:16;;;;;;;45.50;28.38;;;4.50;99.90;;;;;;5062146;28;20379;-50
2023/10/18 01:32:43;;;;;;;44.50;26.75;;;4.40;99.90;;;;;;5053005;28;20045;-51
2023/10/18 01:35:11;;;;;;;40.97;26.37;;;4.50;99.90;;;;;;5060164;28;20515;-48
2023/10/18 01:37:39;;;;;;;46.78;28.13;;;4.50;99.90;;;;;;5064503;28;20299;-49
2023/10/18 01:42:58;;;;;;;48.42;28.73;;;4.50;99.90;;;;;;5058423;28;20398;-48
2023/10/18 01:45:29;;;;;;;47.30;27.90;;;4.60;99.90;;;;;;5058780;28;20049;-50
2023/10/18 01:47:57;;;;;;;41.85;27.15;;;4.50;99.90;;;;;;5060850;28;20036;-48
2023/10/18 01:50:23;;;;;;;45.47;28.13;;;4.60;99.90;;;;;;5059127;28;20045;-49
2023/10/18 01:52:49;;;;;;;41.95;24.00;;;4.50;99.90;;;;;;5056398;28;20029;-51
2023/10/18 01:55:14;;;;;;;45.83;27.40;;;4.60;99.90;;;;;;5061299;28;20498;-49
2023/10/18 01:57:42;;;;;;;47.03;30.70;;;4.50;99.90;;;;;;5059346;28;20041;-48
2023/10/18 02:00:34;;;;;;;;;;;4.70;99.90;;;;;;5058813;28;20044;-48
2023/10/18 02:03:00;;;;;;;43.97;26.92;;;4.50;99.90;;;;;;5058451;28;19941;-48
2023/10/18 02:05:26;;;;;;;44.10;28.40;;;4.70;99.90;;;;;;5059389;28;20581;-51
2023/10/18 02:07:55;;;;;;;43.30;27.48;;;4.70;99.90;;;;;;5059562;28;20562;-48
2023/10/18 02:10:23;;;;;;;48.90;30.13;;;4.70;99.90;;;;;;5061946;28;20333;-48
2023/10/18 02:12:49;;;;;;;39.10;25.00;;;4.70;99.90;;;;;;5058859;28;20090;-52
2023/10/18 02:15:17;;;;;;;49.10;30.25;;;4.60;99.90;;;;;;5060213;28;20541;-48
2023/10/18 02:17:46;;;;;;;46.10;29.73;;;4.60;99.90;;;;;;5058750;28;20078;-49
2023/10/18 02:20:30;;;;;;;48.20;29.92;;;4.60;99.90;;;;;;5055868;28;20041;-52
2023/10/18 02:23:10;;;;;;;45.90;29.30;;;4.80;99.90;;;;;;5054042;28;20044;-52
2023/10/18 02:25:43;;;;;;;44.15;24.92;;;4.70;99.90;;;;;;5058352;28;20080;-49
2023/10/18 02:28:23;;;;;;;41.65;25.17;;;4.70;99.90;;;;;;5058940;28;20040;-50
2023/10/18 02:34:05;;;;;;;47.17;29.80;;;4.70;99.90;;;;;;5062598;28;20049;-49
2023/10/18 02:36:38;;;;;;;42.30;26.88;;;4.80;99.90;;;;;;5059616;28;20044;-48
2023/10/18 02:39:10;;;;;;;51.08;31.10;;;4.80;99.90;;;;;;5062274;28;20070;-48
2023/10/18 02:41:39;;;;;;;45.75;28.30;;;4.80;99.90;;;;;;5060367;28;20095;-48
2023/10/18 02:44:11;;;;;;;51.38;31.17;;;4.80;99.90;;;;;;5056320;28;20044;-51
2023/10/18 02:46:36;;;;;;;48.63;30.55;;;4.80;99.90;;;;;;5062245;28;20049;-50
2023/10/18 02:49:07;;;;;;;51.95;31.88;;;4.80;99.90;;;;;;5057841;28;20086;-49
2023/10/18 02:51:33;;;;;;;52.72;33.15;;;4.90;99.90;;;;;;5059133;28;20053;-50
2023/10/18 02:54:16;;;;;;;53.05;32.20;;;4.80;99.90;;;;;;5056113;28;20041;-49
2023/10/18 02:56:43;;;;;;;50.70;32.67;;;4.80;99.90;;;;;;5058366;28;20051;-48
2023/10/18 02:59:13;;;;;;;44.88;28.95;;;4.90;99.90;;;;;;5059897;28;20041;-49
2023/10/18 03:01:40;;;;;;;50.00;31.08;;;4.90;99.90;;;;;;5060781;28;20060;-49
2023/10/18 03:04:14;;;;;;;47.17;30.58;;;4.80;99.90;;;;;;5060635;28;20036;-51
2023/10/18 03:06:41;;;;;;;46.40;31.05;;;4.90;99.90;;;;;;5062912;28;20577;-51
2023/10/18 03:09:18;;;;;;;50.65;31.88;;;4.80;99.90;;;;;;5054916;28;20037;-50
2023/10/18 03:11:44;;;;;;;47.33;29.85;;;4.80;99.90;;;;;;5057202;28;20094;-50
2023/10/18 03:14:12;;;;;;;54.00;31.15;;;4.80;99.90;;;;;;5057421;28;20044;-52
2023/10/18 03:19:11;;;;;;;43.17;27.13;;;4.80;99.90;;;;;;5059894;28;20078;-48
2023/10/18 03:21:37;;;;;;;46.55;30.55;;;4.80;99.90;;;;;;5060621;28;20048;-50
2023/10/18 03:24:04;;;;;;;45.00;27.88;;;4.90;99.90;;;;;;5060682;28;20044;-49
2023/10/18 03:26:35;;;;;;;44.20;30.40;;;4.90;99.90;;;;;;5060609;28;20049;-50
2023/10/18 03:29:15;;;;;;;45.75;29.90;;;5.00;99.90;;;;;;5051784;28;20410;-49
2023/10/18 03:31:43;;;;;;;41.78;28.95;;;5.00;99.90;;;;;;5055317;28;20048;-51
2023/10/18 03:34:16;;;;;;;46.67;29.38;;;5.00;99.90;;;;;;5057695;28;20036;-51
2023/10/18 03:36:54;;;;;;;40.58;27.33;;;5.00;99.90;;;;;;5062352;28;20063;-48
2023/10/18 03:39:21;;;;;;;41.03;27.98;;;;;;;;;;5059207;28;20048;-53
2023/10/18 03:41:50;;;;;;;42.83;28.70;;;;;;;;;;5058097;28;20037;-51
2023/10/18 03:44:27;;;;;;;44.47;28.50;;;5.40;99.90;;;;;;5061076;28;20068;-49
2023/10/18 03:47:11;;;;;;;38.20;27.33;;;5.30;99.90;;;;;;5053628;28;20136;-52
2023/10/18 03:49:37;;;;;;;43.75;28.88;;;5.10;99.90;;;;;;5057006;28;20090;-51
2023/10/18 03:52:27;;;;;;;38.13;28.33;;;5.30;99.90;;;;;;5050784;28;20431;-52
2023/10/18 03:57:28;;;;;;;39.78;27.17;;;5.30;99.90;;;;;;5058779;28;20069;-49
2023/10/18 04:00:10;;;;;;;38.08;25.90;;;5.30;99.90;;;;;;5056440;28;20036;-49
2023/10/18 04:02:36;;;;;;;38.83;27.88;;;5.40;99.90;;;;;;5057268;28;20052;-50
2023/10/18 04:05:21;;;;;;;39.30;27.98;;;5.30;99.90;;;;;;5058597;28;20447;-52
2023/10/18 04:07:47;;;;;;;39.00;26.75;;;5.30;99.90;;;;;;5060161;28;20102;-50
2023/10/18 04:10:13;;;;;;;36.17;26.80;;;5.30;99.90;;;;;;5056263;28;20036;-49
2023/10/18 04:12:40;;;;;;;41.33;27.48;;;5.30;99.90;;;;;;5057683;28;20048;-48
2023/10/18 04:15:22;;;;;;;37.75;26.88;;;5.30;99.90;;;;;;5058001;28;20167;-48
2023/10/18 04:18:03;;;;;;;36.25;26.75;;;5.30;99.90;;;;;;5054652;28;20041;-49
2023/10/18 04:20:31;;;;;;;36.17;26.40;;;5.40;99.90;;;;;;5055089;28;20040;-47
2023/10/18 04:22:57;;;;;;;32.65;24.27;;;5.30;99.90;;;;;;5051053;28;20415;-48
2023/10/18 04:25:26;;;;;;;37.80;26.27;;;5.30;99.90;;;;;;5059161;28;20120;-49
2023/10/18 04:27:59;;;;;;;36.35;27.05;;;5.30;99.90;;;;;;5054873;28;20059;-49
2023/10/18 04:30:31;;;;;;;37.88;27.02;;;5.30;99.90;;;;;;5061281;28;20037;-48
2023/10/18 04:33:00;;;;;;;36.95;27.70;;;5.30;99.90;;;;;;5053276;28;20071;-48
2023/10/18 04:35:32;;;;;;;36.53;27.13;;;5.30;99.90;;;;;;5052109;28;20383;-48
2023/10/18 04:37:58;;;;;;;32.28;23.42;;;5.40;99.90;;;;;;5056001;28;20041;-50
2023/10/18 04:40:28;;;;;;;34.53;25.23;;;5.40;99.90;;;;;;5061490;28;20142;-52
2023/10/18 04:42:55;;;;;;;33.47;25.42;;;5.30;99.90;;;;;;5058252;28;20049;-50
2023/10/18 04:45:24;;;;;;;36.72;26.33;;;5.40;99.90;;;;;;5054895;28;20053;-49
2023/10/18 04:48:06;;;;;;;35.70;25.92;;;5.30;99.90;;;;;;5051689;28;20368;-52
2023/10/18 04:50:38;;;;;;;33.83;25.00;;;5.30;99.90;;;;;;5052504;28;20045;-50
2023/10/18 04:53:12;;;;;;;36.90;27.33;;;5.30;99.90;;;;;;5057127;28;20446;-48
2023/10/18 04:55:46;;;;;;;36.85;26.45;;;5.30;99.90;;;;;;5054502;28;20044;-49
2023/10/18 04:58:16;;;;;;;37.53;26.95;;;5.20;99.90;;;;;;5059837;28;20483;-48
2023/10/18 05:00:56;;;;;;;34.67;24.77;;;5.20;99.90;;;;;;5056112;28;20041;-50
2023/10/18 05:03:30;;;;;;;37.85;26.73;;;5.20;99.90;;;;;;5060236;28;20040;-48
2023/10/18 05:05:59;;;;;;;37.15;26.65;;;5.20;99.90;;;;;;5058017;28;20136;-50
2023/10/18 05:08:24;;;;;;;36.17;27.00;;;5.20;99.90;;;;;;5052827;28;20055;-48
2023/10/18 05:10:52;;;;;;;36.38;27.40;;;5.10;99.90;;;;;;5062475;28;20457;-51
2023/10/18 05:13:32;;;;;;;33.80;25.70;;;5.10;99.90;;;;;;5064843;28;20076;-49
2023/10/18 05:16:05;;;;;;;34.80;26.20;;;5.10;99.90;;;;;;5062962;28;20037;-48
2023/10/18 05:18:30;;;;;;;36.25;27.55;;;5.10;99.90;;;;;;5062164;28;20746;-49
2023/10/18 05:20:58;;;;;;;36.28;26.20;;;5.10;99.90;;;;;;5064612;28;20397;-51
2023/10/18 05:23:27;;;;;;;31.35;23.55;;;5.20;99.90;;;;;;5058487;28;20478;-47
2023/10/18 05:34:18;;;;;;;34.13;25.25;;;5.20;99.90;;;;;;5060009;28;20635;-49
2023/10/18 05:41:51;;;;;;;31.85;24.80;;;5.20;99.90;;;;;;5055466;28;20048;-50
2023/10/18 05:44:17;;;;;;;35.25;26.33;;;5.20;99.90;;;;;;5064106;28;20428;-49
2023/10/18 05:46:46;;;;;;;31.80;24.38;;;5.20;99.90;;;;;;5064473;28;20159;-49
2023/10/18 05:49:15;;;;;;;33.63;25.20;;;5.20;99.90;;;;;;5055430;28;20079;-51
2023/10/18 05:54:28;;;;;;;32.50;25.02;;;5.20;99.90;;;;;;5061027;28;20052;-49
2023/10/18 05:56:54;;;;;;;30.83;19.42;;;5.10;99.90;;;;;;5062357;28;20116;-49
2023/10/18 06:01:47;;;;;;;33.83;25.10;;;5.20;99.90;;;;;;5063619;28;21335;-48
2023/10/18 06:04:14;;;;;;;33.67;25.40;;;5.10;99.90;;;;;;5059877;28;20475;-49
2023/10/18 06:06:40;;;;;;;34.50;25.58;;;5.10;99.90;;;;;;5062842;28;20123;-48
2023/10/18 06:09:26;;;;;;;30.25;23.70;;;5.10;99.90;;;;;;5064295;28;20098;-49
2023/10/18 06:11:51;;;;;;;30.48;24.25;;;5.10;99.90;;;;;;5066456;28;20044;-48
2023/10/18 06:14:17;;;;;;;30.40;23.30;;;5.10;99.90;;;;;;5059301;28;20328;-48
2023/10/18 06:16:51;;;;;;;31.85;24.13;;;5.10;99.90;;;;;;5067635;28;20046;-49
2023/10/18 06:19:22;;;;;;;29.98;23.98;;;5.10;99.90;;;;;;5061624;28;20036;-51
2023/10/18 06:22:08;;;;;;;31.63;23.27;;;5.20;99.90;;;;;;5055539;28;20100;-48
2023/10/18 06:24:33;;;;;;;29.88;22.65;;;5.20;99.90;;;;;;5062257;28;20472;-48
2023/10/18 06:26:59;;;;;;;29.55;22.27;;;5.20;99.90;;;;;;5063114;28;20049;-48
2023/10/18 06:29:25;;;;;;;30.38;22.77;;;5.20;99.90;;;;;;5058784;28;20491;-48
2023/10/18 06:31:53;;;;;;;30.50;23.73;;;5.20;99.90;;;;;;5058755;28;20029;-48
2023/10/18 06:34:18;;;;;;;;;;;5.20;99.90;;;;;;5061935;28;20052;-51
2023/10/18 06:36:47;;;;;;;24.52;19.40;;;5.50;99.90;;;;;;5060394;28;20036;-52
2023/10/18 06:39:26;;;;;;;30.67;23.30;;;5.60;99.90;;;;;;5064972;28;20467;-49
2023/10/18 06:41:54;;;;;;;27.95;22.02;;;;;;;;;;5067830;28;20510;-49
2023/10/18 06:44:19;;;;;;;24.92;20.63;;;5.60;99.90;;;;;;5063363;28;20119;-49
2023/10/18 06:46:49;;;;;;;26.83;20.85;;;5.50;99.90;;;;;;5062023;28;20195;-48
2023/10/18 06:49:14;;;;;;;25.83;20.95;;;5.60;99.90;;;;;;5062412;28;20041;-50
2023/10/18 06:51:40;;;;;;;26.13;21.48;;;5.60;99.90;;;;;;5062137;28;20047;-48
2023/10/18 06:54:13;;;;;;;21.80;18.17;;;5.60;99.90;;;;;;5067129;28;20032;-46
2023/10/18 06:56:39;;;;;;;23.98;17.73;;;5.60;99.90;;;;;;5062504;28;20053;-48
2023/10/18 06:59:07;;;;;;;25.33;21.60;;;5.70;99.90;;;;;;5060493;28;20198;-51
2023/10/18 07:01:34;;;;;;;25.38;21.63;;;5.70;99.90;;;;;;5061406;28;20033;-48
2023/10/18 07:04:00;;;;;;;25.25;21.10;;;5.70;99.90;;;;;;5060900;28;20036;-51
2023/10/18 07:06:29;;;;;;;24.58;20.27;;;5.80;99.90;;;;;;5057911;28;20407;-50
2023/10/18 07:08:56;;;;;;;23.77;19.23;;;5.80;99.90;;;;;;5058307;28;20359;-48
2023/10/18 07:11:23;;;;;;;22.95;17.85;;;5.80;99.90;;;;;;5067260;28;20089;-48
2023/10/18 07:13:54;;;;;;;25.93;20.33;;;5.90;99.90;;;;;;5071200;28;20044;-47
2023/10/18 07:16:38;;;;;;;25.90;20.83;;;5.90;99.90;;;;;;5062540;28;20475;-48
2023/10/18 07:19:06;;;;;;;27.17;21.35;;;6.00;99.90;;;;;;5067960;28;20113;-48
2023/10/18 07:21:32;;;;;;;23.70;18.55;;;6.00;99.90;;;;;;5067632;28;20048;-47
2023/10/18 07:24:10;;;;;;;23.42;18.92;;;6.00;99.90;;;;;;5058439;28;20048;-47
2023/10/18 07:26:37;;;;;;;21.63;17.63;;;6.10;99.90;;;;;;5058307;28;20043;-49
2023/10/18 07:29:08;;;;;;;22.63;18.17;;;6.20;99.90;;;;;;5058761;28;20209;-48
2023/10/18 07:31:38;;;;;;;24.27;19.20;;;6.20;99.90;;;;;;5063445;28;20041;-47
2023/10/18 07:34:07;;;;;;;22.73;18.90;;;6.30;99.90;;;;;;5055475;28;20668;-47
2023/10/18 07:36:37;;;;;;;22.55;18.83;;;6.30;99.90;;;;;;5061616;28;20463;-48
2023/10/18 07:39:04;;;;;;;20.75;16.90;;;6.30;99.90;;;;;;5054382;28;20037;-48
2023/10/18 07:41:34;;;;;;;18.67;15.02;;;6.40;99.90;;;;;;5066681;28;20115;-47
2023/10/18 07:44:06;;;;;;;19.00;14.75;;;6.40;99.90;;;;;;5060833;28;20037;-48
2023/10/18 07:46:39;;;;;;;20.80;18.38;;;6.40;99.90;;;;;;5059670;28;20064;-51
2023/10/18 07:49:15;;;;;;;23.35;17.98;;;6.50;99.90;;;;;;5067068;28;20059;-50
2023/10/18 07:51:48;;;;;;;20.80;17.45;;;6.50;99.90;;;;;;5060633;28;20139;-51
2023/10/18 07:54:15;;;;;;;20.15;15.55;;;6.60;99.90;;;;;;5061944;28;20098;-51
2023/10/18 07:56:48;;;;;;;17.23;14.93;;;6.70;99.90;;;;;;5053602;28;20506;-52
2023/10/18 07:59:28;;;;;;;16.98;12.73;;;6.50;99.90;;;;;;5062251;28;20083;-49
2023/10/18 08:02:12;;;;;;;18.00;15.05;;;6.70;99.90;;;;;;5064187;28;20403;-48
2023/10/18 08:04:40;;;;;;;19.90;16.35;;;6.70;99.90;;;;;;5059875;28;20058;-50
2023/10/18 08:07:10;;;;;;;18.15;15.95;;;6.80;99.90;;;;;;5057055;28;20102;-48
2023/10/18 08:09:40;;;;;;;17.20;15.13;;;6.80;99.90;;;;;;5060518;28;20033;-51
2023/10/18 08:12:08;;;;;;;18.33;15.50;;;6.80;99.90;;;;;;5067035;28;20047;-48
2023/10/18 08:14:34;;;;;;;16.97;14.67;;;6.90;99.90;;;;;;5063221;28;20166;-47
2023/10/18 08:17:09;;;;;;;15.95;14.25;;;6.90;99.90;;;;;;5068472;28;20044;-48
2023/10/18 08:19:44;;;;;;;17.13;15.43;;;7.00;99.90;;;;;;5066249;28;20476;-50
2023/10/18 08:24:36;;;;;;;18.20;14.25;;;7.10;99.90;;;;;;5055520;28;20044;-48
2023/10/18 08:27:09;;;;;;;18.27;15.77;;;7.10;99.90;;;;;;5068437;28;20068;-48
2023/10/18 08:29:36;;;;;;;17.05;15.25;;;7.20;99.90;;;;;;5062214;28;20052;-48
2023/10/18 08:32:15;;;;;;;18.83;15.38;;;7.30;99.90;;;;;;5066600;28;20072;-49
2023/10/18 08:34:44;;;;;;;14.15;11.60;;;7.30;99.90;;;;;;5062214;28;20033;-51
2023/10/18 08:37:13;;;;;;;15.02;13.38;;;7.40;99.90;;;;;;5054586;28;20045;-48
2023/10/18 08:39:40;;;;;;;16.27;14.20;;;7.40;99.90;;;;;;5060492;28;20035;-48
2023/10/18 08:42:14;;;;;;;16.52;14.73;;;7.50;99.90;;;;;;5067051;28;20115;-49
2023/10/18 08:44:40;;;;;;;17.27;13.85;;;7.50;99.90;;;;;;5062900;28;20422;-48
2023/10/18 08:49:43;;;;;;;17.03;13.63;;;7.60;99.90;;;;;;5067145;28;20056;-51
2023/10/18 08:52:10;;;;;;;16.30;14.30;;;7.70;99.90;;;;;;5058183;28;20045;-50
2023/10/18 08:54:41;;;;;;;16.13;14.40;;;7.80;99.90;;;;;;5065211;28;20037;-48
2023/10/18 08:57:11;;;;;;;15.25;11.48;;;7.80;99.90;;;;;;5059608;28;20087;-50
2023/10/18 08:59:50;;;;;;;17.17;14.30;;;7.80;99.90;;;;;;5061201;28;20048;-48
2023/10/18 09:02:23;;;;;;;14.90;13.07;;;7.90;99.90;;;;;;5056791;28;20041;-48
2023/10/18 09:04:53;;;;;;;16.98;13.55;;;7.90;99.90;;;;;;5058359;28;20033;-47
2023/10/18 09:07:22;;;;;;;18.65;13.48;;;8.00;99.90;;;;;;5064939;28;20429;-48
2023/10/18 09:09:56;;;;;;;14.52;12.98;;;8.10;99.90;;;;;;5060083;28;20056;-49
2023/10/18 09:13:03;;;;;;;14.70;13.30;;;8.20;99.90;;;;;;5057514;28;20362;-50
2023/10/18 09:15:29;;;;;;;13.38;11.98;;;8.20;99.90;;;;;;5064240;28;20068;-52
2023/10/18 09:18:05;;;;;;;14.52;13.02;;;8.40;99.90;;;;;;5064054;28;20083;-51
2023/10/18 09:20:31;;;;;;;14.52;10.43;;;8.50;99.90;;;;;;5065072;28;20043;-50
2023/10/18 09:23:04;;;;;;;15.95;13.23;;;8.60;99.90;;;;;;5059360;28;20063;-50
2023/10/18 09:25:50;;;;;;;12.85;11.55;;;8.70;99.90;;;;;;5054857;28;20082;-49
2023/10/18 09:28:30;;;;;;;14.45;13.00;;;8.70;99.90;;;;;;5066048;28;20045;-51
2023/10/18 09:31:01;;;;;;;16.45;13.23;;;8.90;99.90;;;;;;5065648;28;20033;-49
2023/10/18 09:33:32;;;;;;;15.65;13.27;;;9.10;99.90;;;;;;5064927;28;20040;-48
2023/10/18 09:36:02;;;;;;;15.65;12.77;;;9.10;99.90;;;;;;5067622;28;20185;-51
2023/10/18 09:38:39;;;;;;;13.13;11.32;;;9.20;99.90;;;;;;5067501;28;20052;-50
2023/10/18 09:41:05;;;;;;;12.47;9.97;;;9.20;99.90;;;;;;5062775;28;20557;-51
2023/10/18 09:43:37;;;;;;;11.95;10.75;;;9.20;99.90;;;;;;5067080;28;20041;-49
2023/10/18 09:46:04;;;;;;;11.20;10.05;;;9.20;99.90;;;;;;5065908;28;20053;-48
2023/10/18 09:48:38;;;;;;;13.63;12.07;;;9.20;99.90;;;;;;5063815;28;20052;-51
2023/10/18 09:51:08;;;;;;;13.20;11.90;;;9.20;99.90;;;;;;5072507;28;20131;-50
2023/10/18 09:53:54;;;;;;;12.20;10.07;;;9.30;99.90;;;;;;5063799;28;20342;-51
2023/10/18 09:56:33;;;;;;;12.52;11.23;;;9.20;99.90;;;;;;5060847;28;20036;-48
2023/10/18 09:59:25;;;;;;;14.43;11.90;;;9.30;99.90;;;;;;5065142;28;20044;-48
2023/10/18 10:01:59;;;;;;;13.05;11.70;;;9.30;99.90;;;;;;5062994;28;20522;-49
2023/10/18 10:04:32;;;;;;;12.32;11.05;;;9.40;99.90;;;;;;5062442;28;20040;-47
2023/10/18 10:09:46;;;;;;;11.00;8.65;;;9.50;99.90;;;;;;5063960;28;20044;-49
2023/10/18 10:12:15;;;;;;;12.90;10.95;;;9.60;99.90;;;;;;5062502;28;20032;-49
2023/10/18 10:14:41;;;;;;;11.70;10.55;;;9.70;99.90;;;;;;5059071;28;20045;-50
2023/10/18 10:17:10;;;;;;;11.52;10.25;;;;;;;;;;5062542;28;20044;-51
2023/10/18 10:19:40;;;;;;;9.82;8.68;;;;;;;;;;5063229;28;20044;-48
2023/10/18 10:22:07;;;;;;;12.10;10.90;;;;;;;;;;5060867;28;20048;-48
2023/10/18 10:24:43;;;;;;;10.90;9.77;;;;;;;;;;5060531;28;20033;-48
2023/10/18 10:27:27;;;;;;;12.13;10.50;;;;;;;;;;5053779;28;20060;-50
2023/10/18 10:29:56;;;;;;;11.93;10.48;;;;;;;;;;5058256;28;20452;-48
2023/10/18 10:32:24;;;;;;;9.82;8.35;;;;;;;;;;5060118;28;20089;-48
2023/10/18 10:34:53;;;;;;;11.77;10.35;;;;;;;;;;5056579;28;20067;-48
2023/10/18 10:37:19;;;;;;;11.15;9.55;;;;;;;;;;5061696;28;20492;-48
2023/10/18 10:39:52;;;;;;;13.00;10.55;;;;;;;;;;5060275;28;20048;-49
2023/10/18 10:42:29;;;;;;;12.23;10.15;;;;;;;;;;5059245;28;20055;-51
2023/10/18 10:44:55;;;;;;;12.18;9.70;;;;;;;;;;5060678;28;20059;-51
2023/10/18 10:47:32;;;;;;;10.15;8.77;;;;;;;;;;5056697;28;20125;-48
2023/10/18 10:50:03;;;;;;;10.88;8.88;;;;;;;;;;5052693;28;20045;-49
2023/10/18 10:52:30;;;;;;;10.88;9.88;;;;;;;;;;5063722;28;20348;-50
2023/10/18 10:55:04;;;;;;;8.02;7.22;;;;;;;;;;5055866;28;20044;-49
2023/10/18 10:57:43;;;;;;;13.57;10.45;;;;;;;;;;5065907;28;20141;-51
2023/10/18 11:02:54;;;;;;;13.18;10.73;;;;;;;;;;5064009;28;20075;-48
2023/10/18 11:05:24;;;;;;;10.50;9.52;;;10.70;99.90;;;;;;5065599;28;20486;-48
2023/10/18 11:07:52;;;;;;;10.43;9.25;;;10.70;99.90;;;;;;5068212;28;20360;-50
2023/10/18 11:10:19;;;;;;;11.73;10.02;;;10.70;99.90;;;;;;5067705;28;20045;-47
2023/10/18 11:12:45;;;;;;;11.77;10.30;;;10.80;99.90;;;;;;5066895;28;20046;-49
2023/10/18 11:15:17;;;;;;;11.18;9.90;;;10.80;99.90;;;;;;5057746;28;20060;-51
2023/10/18 11:17:45;;;;;;;12.30;10.13;;;10.80;99.90;;;;;;5065849;28;20036;-50
2023/10/18 11:20:24;;;;;;;13.40;9.63;;;10.90;99.90;;;;;;5068220;28;20059;-49
2023/10/18 11:22:50;;;;;;;10.95;9.63;;;11.00;99.90;;;;;;5066571;28;21545;-50
2023/10/18 11:25:20;;;;;;;11.95;9.50;;;10.90;99.90;;;;;;5058360;28;20116;-50
2023/10/18 11:27:49;;;;;;;10.10;9.10;;;11.00;99.90;;;;;;5055862;28;20041;-48
2023/10/18 11:30:22;;;;;;;10.73;9.63;;;11.10;99.90;;;;;;5063141;28;20425;-50
2023/10/18 11:32:55;;;;;;;10.68;8.73;;;11.00;99.90;;;;;;5068829;28;20623;-50
2023/10/18 11:38:09;;;;;;;9.85;8.82;;;11.10;99.90;;;;;;5065753;28;20375;-48
2023/10/18 11:40:40;;;;;;;10.95;8.73;;;11.30;99.90;;;;;;5058990;28;20086;-48
2023/10/18 11:43:09;;;;;;;10.40;9.32;;;11.20;99.90;;;;;;5066988;28;20516;-49
2023/10/18 11:45:37;;;;;;;9.63;8.48;;;11.30;99.90;;;;;;5064369;28;20643;-49
2023/10/18 11:48:06;;;;;;;;;;;11.30;99.90;;;;;;5065406;28;20072;-48
2023/10/18 11:50:43;;;;;;;9.57;8.10;;;11.30;99.90;;;;;;5058945;28;20310;-48
2023/10/18 11:53:12;;;;;;;12.55;7.80;;;11.30;99.90;;;;;;5062160;28;20061;-47
2023/10/18 11:55:56;;;;;;;11.07;8.32;;;11.40;99.90;;;;;;5067706;28;20218;-47
2023/10/18 11:58:27;;;;;;;8.70;7.80;;;11.60;99.90;;;;;;5058000;28;20086;-48
2023/10/18 12:01:06;;;;;;;8.43;7.63;;;11.60;99.90;;;;;;5063523;28;20045;-50
2023/10/18 12:03:35;;;;;;;8.75;7.90;;;11.60;99.90;;;;;;5062334;28;20059;-48
2023/10/18 12:06:02;;;;;;;7.93;7.20;;;11.70;99.90;;;;;;5065436;28;20458;-48
2023/10/18 12:08:33;;;;;;;8.82;7.97;;;11.80;99.90;;;;;;5057222;28;20073;-51
2023/10/18 12:11:04;;;;;;;10.13;7.35;;;11.90;99.90;;;;;;5063013;28;20065;-48
2023/10/18 12:13:29;;;;;;;8.70;7.53;;;12.00;99.90;;;;;;5062075;28;20410;-48
2023/10/18 12:16:00;;;;;;;7.57;6.45;;;11.90;99.90;;;;;;5066942;28;20048;-49
2023/10/18 12:18:27;;;;;;;8.15;7.15;;;11.90;99.90;;;;;;5062606;28;20075;-51
2023/10/18 12:20:54;;;;;;;12.55;7.57;;;11.90;99.90;;;;;;5054415;28;20048;-48
2023/10/18 12:23:20;;;;;;;8.80;7.47;;;12.00;99.90;;;;;;5064554;28;20045;-48
2023/10/18 12:25:46;;;;;;;9.07;8.18;;;12.10;99.90;;;;;;5060630;28;20247;-48
2023/10/18 12:28:12;;;;;;;8.80;7.07;;;12.20;99.90;;;;;;5057299;28;20132;-48
2023/10/18 12:30:51;;;;;;;10.25;7.05;;;12.40;99.90;;;;;;5058501;28;20040;-51
2023/10/18 12:33:24;;;;;;;10.57;7.60;;;12.30;99.90;;;;;;5066110;28;20064;-48
2023/10/18 12:35:49;;;;;;;8.30;7.47;;;12.40;99.90;;;;;;5066011;28;20060;-48
2023/10/18 12:38:20;;;;;;;9.57;7.07;;;12.50;99.90;;;;;;5055030;28;20037;-49
2023/10/18 12:40:52;;;;;;;9.00;7.10;;;12.50;99.90;;;;;;5057508;28;20037;-49
2023/10/18 12:43:20;;;;;;;9.13;6.70;;;12.50;99.90;;;;;;5059390;28;20132;-51
2023/10/18 12:45:50;;;;;;;7.28;6.57;;;12.40;99.90;;;;;;5069151;28;20113;-49
2023/10/18 12:48:21;;;;;;;12.23;7.45;;;12.30;99.90;;;;;;5057734;28;20120;-51
2023/10/18 12:50:54;;;;;;;8.60;7.10;;;12.40;99.90;;;;;;5051228;28;20083;-48
2023/10/18 12:55:58;;;;;;;9.30;6.85;;;12.20;99.90;;;;;;5051075;28;20056;-49
2023/10/18 12:58:32;;;;;;;8.43;7.60;;;12.30;99.90;;;;;;5056073;28;20055;-48
2023/10/18 13:01:10;;;;;;;8.57;7.68;;;12.30;99.90;;;;;;5050686;28;20037;-48
2023/10/18 13:03:45;;;;;;;8.27;7.47;;;12.30;99.90;;;;;;5059950;28;20112;-52
2023/10/18 13:06:17;;;;;;;10.45;7.90;;;12.50;99.90;;;;;;5062713;28;20124;-52
2023/10/18 13:08:56;;;;;;;9.07;7.60;;;12.70;99.90;;;;;;5063031;28;20437;-49
2023/10/18 13:14:07;;;;;;;8.90;7.18;;;12.70;99.90;;;;;;5059573;28;20053;-48
2023/10/18 13:16:33;;;;;;;8.55;7.05;;;12.70;99.90;;;;;;5063247;28;20033;-48
2023/10/18 13:18:59;;;;;;;10.27;7.65;;;12.50;99.90;;;;;;5064277;28;20047;-48
2023/10/18 13:21:27;;;;;;;9.00;8.07;;;12.60;99.90;;;;;;5052933;28;20479;-50
2023/10/18 13:26:40;;;;;;;;;;;12.50;99.90;;;;;;5061937;28;20113;-51
2023/10/18 13:29:13;;;;;;;8.00;7.00;;;12.50;99.90;;;;;;5061364;28;20423;-50
2023/10/18 13:31:44;;;;;;;8.70;7.72;;;12.40;99.90;;;;;;5068035;28;20051;-48
2023/10/18 13:34:18;;;;;;;8.20;7.40;;;12.30;99.90;;;;;;5061341;28;20463;-48
2023/10/18 13:36:47;;;;;;;9.18;8.27;;;12.30;99.90;;;;;;5071246;28;20063;-49
2023/10/18 13:39:16;;;;;;;8.05;7.03;;;12.20;99.90;;;;;;5063942;28;20044;-49
2023/10/18 13:41:46;;;;;;;9.40;8.23;;;12.20;99.90;;;;;;5063754;28;20037;-48
2023/10/18 13:44:25;;;;;;;8.77;7.53;;;12.10;99.90;;;;;;5041505;28;20098;-48
2023/10/18 13:46:51;;;;;;;9.02;8.10;;;12.10;99.90;;;;;;5055224;28;20072;-47
2023/10/18 13:49:20;;;;;;;9.00;8.10;;;12.10;99.90;;;;;;5053685;28;20052;-48
2023/10/18 13:51:48;;;;;;;9.27;7.88;;;12.10;99.90;;;;;;5053737;28;20045;-49
2023/10/18 13:54:14;;;;;;;8.60;7.43;;;12.00;99.90;;;;;;5054223;28;20045;-48
2023/10/18 13:56:40;;;;;;;9.43;7.53;;;11.90;99.90;;;;;;5067381;28;20055;-48